sensor_id;sensor_type;location;lat;lon;timestamp;pressure;altitude;pressure_sealevel;temperature;humidity
64967;BME280;51710;38.732;-121.358;2023-04-10T00:00:25;101455.03;;;24.71;37.43
64967;BME280;51710;38.732;-121.358;2023-04-10T00:02:51;101454.25;;;24.64;38.06
64967;BME280;51710;38.732;-121.358;2023-04-10T00:05:18;101450.72;;;24.63;37.81
64967;BME280;51710;38.732;-121.358;2023-04-10T00:07:44;101452.13;;;24.66;38.81
64967;BME280;51710;38.732;-121.358;2023-04-10T00:10:10;101456.97;;;24.64;37.90
64967;BME280;51710;38.732;-121.358;2023-04-10T00:12:36;101452.25;;;24.59;37.59
64967;BME280;51710;38.732;-121.358;2023-04-10T00:15:03;101450.78;;;24.57;37.46
64967;BME280;51710;38.732;-121.358;2023-04-10T00:17:29;101442.50;;;24.51;37.14
64967;BME280;51710;38.732;-121.358;2023-04-10T00:19:55;101440.38;;;24.53;37.41
64967;BME280;51710;38.732;-121.358;2023-04-10T00:22:24;101441.06;;;24.49;37.50
64967;BME280;51710;38.732;-121.358;2023-04-10T00:24:50;101433.81;;;24.43;37.03
64967;BME280;51710;38.732;-121.358;2023-04-10T00:27:16;101436.50;;;24.31;36.72
64967;BME280;51710;38.732;-121.358;2023-04-10T00:29:42;101435.28;;;24.27;37.59
64967;BME280;51710;38.732;-121.358;2023-04-10T00:32:09;101423.91;;;24.30;37.60
64967;BME280;51710;38.732;-121.358;2023-04-10T00:34:35;101427.84;;;24.34;37.45
64967;BME280;51710;38.732;-121.358;2023-04-10T00:37:01;101434.16;;;24.35;37.29
64967;BME280;51710;38.732;-121.358;2023-04-10T00:39:27;101431.19;;;24.36;37.12
64967;BME280;51710;38.732;-121.358;2023-04-10T00:41:54;101430.44;;;24.29;37.40
64967;BME280;51710;38.732;-121.358;2023-04-10T00:44:20;101423.19;;;24.23;37.47
64967;BME280;51710;38.732;-121.358;2023-04-10T00:46:47;101419.88;;;24.21;37.22
64967;BME280;51710;38.732;-121.358;2023-04-10T00:49:13;101415.72;;;24.19;37.44
64967;BME280;51710;38.732;-121.358;2023-04-10T00:51:40;101414.13;;;24.11;37.63
64967;BME280;51710;38.732;-121.358;2023-04-10T00:54:06;101416.28;;;24.09;38.53
64967;BME280;51710;38.732;-121.358;2023-04-10T00:56:35;101418.81;;;24.04;37.72
64967;BME280;51710;38.732;-121.358;2023-04-10T00:59:02;101414.44;;;24.03;37.31
64967;BME280;51710;38.732;-121.358;2023-04-10T01:01:29;101405.91;;;24.00;38.00
64967;BME280;51710;38.732;-121.358;2023-04-10T01:03:55;101409.66;;;23.99;38.00
64967;BME280;51710;38.732;-121.358;2023-04-10T01:09:34;101406.94;;;23.99;37.94
64967;BME280;51710;38.732;-121.358;2023-04-10T01:15:20;101400.75;;;23.92;37.67
64967;BME280;51710;38.732;-121.358;2023-04-10T01:20:37;101399.00;;;23.79;36.91
64967;BME280;51710;38.732;-121.358;2023-04-10T01:25:55;101393.28;;;23.69;37.33
64967;BME280;51710;38.732;-121.358;2023-04-10T01:31:06;101391.91;;;23.60;39.10
64967;BME280;51710;38.732;-121.358;2023-04-10T01:33:39;101392.94;;;23.59;38.31
64967;BME280;51710;38.732;-121.358;2023-04-10T01:36:10;101394.47;;;23.55;37.84
64967;BME280;51710;38.732;-121.358;2023-04-10T01:38:40;101385.09;;;23.51;37.77
64967;BME280;51710;38.732;-121.358;2023-04-10T01:41:08;101389.31;;;23.47;38.19
64967;BME280;51710;38.732;-121.358;2023-04-10T01:43:36;101384.09;;;23.46;38.54
64967;BME280;51710;38.732;-121.358;2023-04-10T01:46:03;101382.50;;;23.38;38.80
64967;BME280;51710;38.732;-121.358;2023-04-10T01:48:30;101380.69;;;23.32;38.17
64967;BME280;51710;38.732;-121.358;2023-04-10T01:50:57;101390.34;;;23.28;39.32
64967;BME280;51710;38.732;-121.358;2023-04-10T01:53:24;101384.06;;;23.27;39.14
64967;BME280;51710;38.732;-121.358;2023-04-10T01:55:52;101382.13;;;23.34;39.48
64967;BME280;51710;38.732;-121.358;2023-04-10T01:58:19;101383.34;;;23.38;39.47
64967;BME280;51710;38.732;-121.358;2023-04-10T02:00:45;101386.13;;;23.32;39.12
64967;BME280;51710;38.732;-121.358;2023-04-10T02:03:11;101377.84;;;23.20;38.72
64967;BME280;51710;38.732;-121.358;2023-04-10T02:06:07;101381.06;;;23.11;39.13
64967;BME280;51710;38.732;-121.358;2023-04-10T02:08:52;101365.94;;;22.97;39.45
64967;BME280;51710;38.732;-121.358;2023-04-10T02:11:30;101372.06;;;22.86;39.59
64967;BME280;51710;38.732;-121.358;2023-04-10T02:14:00;101373.44;;;22.77;39.43
64967;BME280;51710;38.732;-121.358;2023-04-10T02:16:30;101369.53;;;22.66;39.53
64967;BME280;51710;38.732;-121.358;2023-04-10T02:18:59;101367.72;;;22.54;39.71
64967;BME280;51710;38.732;-121.358;2023-04-10T02:21:26;101363.59;;;22.45;39.82
64967;BME280;51710;38.732;-121.358;2023-04-10T02:23:56;101370.31;;;22.35;39.99
64967;BME280;51710;38.732;-121.358;2023-04-10T02:26:22;101371.03;;;22.24;39.97
64967;BME280;51710;38.732;-121.358;2023-04-10T02:28:48;101366.91;;;22.15;40.68
64967;BME280;51710;38.732;-121.358;2023-04-10T02:31:15;101364.41;;;22.07;41.69
64967;BME280;51710;38.732;-121.358;2023-04-10T02:33:41;101371.16;;;21.98;41.13
64967;BME280;51710;38.732;-121.358;2023-04-10T02:36:08;101365.34;;;21.88;41.29
64967;BME280;51710;38.732;-121.358;2023-04-10T02:38:34;101366.44;;;21.81;40.84
64967;BME280;51710;38.732;-121.358;2023-04-10T02:41:00;101369.97;;;21.75;40.91
64967;BME280;51710;38.732;-121.358;2023-04-10T02:43:27;101378.13;;;21.68;41.10
64967;BME280;51710;38.732;-121.358;2023-04-10T02:45:54;101368.34;;;21.61;41.39
64967;BME280;51710;38.732;-121.358;2023-04-10T02:48:21;101371.09;;;21.54;40.69
64967;BME280;51710;38.732;-121.358;2023-04-10T02:50:47;101365.91;;;21.46;41.24
64967;BME280;51710;38.732;-121.358;2023-04-10T02:53:15;101370.06;;;21.42;41.36
64967;BME280;51710;38.732;-121.358;2023-04-10T02:55:42;101363.00;;;21.35;41.75
64967;BME280;51710;38.732;-121.358;2023-04-10T02:58:08;101370.09;;;21.29;41.33
64967;BME280;51710;38.732;-121.358;2023-04-10T03:00:34;101377.59;;;21.20;42.00
64967;BME280;51710;38.732;-121.358;2023-04-10T03:03:00;101375.97;;;21.13;42.30
64967;BME280;51710;38.732;-121.358;2023-04-10T03:05:26;101370.53;;;21.06;43.10
64967;BME280;51710;38.732;-121.358;2023-04-10T03:07:53;101375.53;;;20.90;42.85
64967;BME280;51710;38.732;-121.358;2023-04-10T03:10:20;101377.16;;;20.71;43.80
64967;BME280;51710;38.732;-121.358;2023-04-10T03:12:46;101384.84;;;20.55;44.24
64967;BME280;51710;38.732;-121.358;2023-04-10T03:15:13;101380.47;;;20.41;45.01
64967;BME280;51710;38.732;-121.358;2023-04-10T03:17:39;101377.31;;;20.31;45.46
64967;BME280;51710;38.732;-121.358;2023-04-10T03:20:06;101377.66;;;20.14;45.52
64967;BME280;51710;38.732;-121.358;2023-04-10T03:22:32;101380.94;;;20.03;45.94
64967;BME280;51710;38.732;-121.358;2023-04-10T03:24:59;101386.09;;;19.92;46.71
64967;BME280;51710;38.732;-121.358;2023-04-10T03:27:25;101391.88;;;19.82;47.40
64967;BME280;51710;38.732;-121.358;2023-04-10T03:29:52;101384.34;;;19.71;47.83
64967;BME280;51710;38.732;-121.358;2023-04-10T03:32:18;101386.38;;;19.63;48.34
64967;BME280;51710;38.732;-121.358;2023-04-10T03:34:44;101393.81;;;19.54;48.51
64967;BME280;51710;38.732;-121.358;2023-04-10T03:37:11;101389.97;;;19.42;48.21
64967;BME280;51710;38.732;-121.358;2023-04-10T03:39:37;101393.41;;;19.30;48.30
64967;BME280;51710;38.732;-121.358;2023-04-10T03:42:03;101391.44;;;19.17;48.60
64967;BME280;51710;38.732;-121.358;2023-04-10T03:44:29;101404.84;;;19.04;49.19
64967;BME280;51710;38.732;-121.358;2023-04-10T03:46:55;101398.94;;;18.94;49.92
64967;BME280;51710;38.732;-121.358;2023-04-10T03:49:22;101402.16;;;18.83;49.90
64967;BME280;51710;38.732;-121.358;2023-04-10T03:51:48;101398.56;;;18.76;49.97
64967;BME280;51710;38.732;-121.358;2023-04-10T03:54:14;101406.59;;;18.69;50.13
64967;BME280;51710;38.732;-121.358;2023-04-10T03:56:40;101409.25;;;18.63;50.25
64967;BME280;51710;38.732;-121.358;2023-04-10T03:59:06;101406.69;;;18.55;50.74
64967;BME280;51710;38.732;-121.358;2023-04-10T04:01:33;101406.16;;;18.45;51.17
64967;BME280;51710;38.732;-121.358;2023-04-10T04:03:59;101405.41;;;18.36;51.10
64967;BME280;51710;38.732;-121.358;2023-04-10T04:06:25;101410.53;;;18.31;51.50
64967;BME280;51710;38.732;-121.358;2023-04-10T04:08:52;101406.72;;;18.26;51.97
64967;BME280;51710;38.732;-121.358;2023-04-10T04:11:18;101408.31;;;18.20;52.14
64967;BME280;51710;38.732;-121.358;2023-04-10T04:13:44;101409.28;;;18.13;52.49
64967;BME280;51710;38.732;-121.358;2023-04-10T04:16:11;101407.72;;;18.04;52.92
64967;BME280;51710;38.732;-121.358;2023-04-10T04:18:37;101411.72;;;17.93;53.38
64967;BME280;51710;38.732;-121.358;2023-04-10T04:21:04;101405.72;;;17.76;54.07
64967;BME280;51710;38.732;-121.358;2023-04-10T04:23:33;101412.56;;;17.64;54.44
64967;BME280;51710;38.732;-121.358;2023-04-10T04:25:59;101412.03;;;17.54;55.00
64967;BME280;51710;38.732;-121.358;2023-04-10T04:28:25;101414.63;;;17.48;55.26
64967;BME280;51710;38.732;-121.358;2023-04-10T04:30:51;101413.94;;;17.46;55.74
64967;BME280;51710;38.732;-121.358;2023-04-10T04:33:18;101408.09;;;17.42;55.72
64967;BME280;51710;38.732;-121.358;2023-04-10T04:35:44;101415.22;;;17.35;56.14
64967;BME280;51710;38.732;-121.358;2023-04-10T04:38:10;101418.03;;;17.27;56.35
64967;BME280;51710;38.732;-121.358;2023-04-10T04:40:36;101414.00;;;17.23;56.94
64967;BME280;51710;38.732;-121.358;2023-04-10T04:43:02;101416.41;;;17.18;56.73
64967;BME280;51710;38.732;-121.358;2023-04-10T04:45:29;101424.59;;;17.10;57.18
64967;BME280;51710;38.732;-121.358;2023-04-10T04:47:55;101420.28;;;17.01;57.54
64967;BME280;51710;38.732;-121.358;2023-04-10T04:50:22;101412.25;;;16.93;58.33
64967;BME280;51710;38.732;-121.358;2023-04-10T04:52:48;101418.75;;;16.84;58.69
64967;BME280;51710;38.732;-121.358;2023-04-10T04:55:14;101419.47;;;16.78;58.93
64967;BME280;51710;38.732;-121.358;2023-04-10T04:57:40;101411.75;;;16.75;59.11
64967;BME280;51710;38.732;-121.358;2023-04-10T05:00:07;101410.25;;;16.72;59.51
64967;BME280;51710;38.732;-121.358;2023-04-10T05:02:33;101413.13;;;16.71;59.45
64967;BME280;51710;38.732;-121.358;2023-04-10T05:04:59;101421.00;;;16.72;59.28
64967;BME280;51710;38.732;-121.358;2023-04-10T05:07:26;101424.75;;;16.71;59.36
64967;BME280;51710;38.732;-121.358;2023-04-10T05:09:52;101425.91;;;16.69;59.70
64967;BME280;51710;38.732;-121.358;2023-04-10T05:12:18;101423.78;;;16.64;59.90
64967;BME280;51710;38.732;-121.358;2023-04-10T05:14:45;101422.63;;;16.59;59.93
64967;BME280;51710;38.732;-121.358;2023-04-10T05:17:11;101429.56;;;16.53;60.00
64967;BME280;51710;38.732;-121.358;2023-04-10T05:19:39;101427.59;;;16.47;59.45
64967;BME280;51710;38.732;-121.358;2023-04-10T05:22:05;101429.78;;;16.44;59.70
64967;BME280;51710;38.732;-121.358;2023-04-10T05:24:32;101423.88;;;16.48;58.91
64967;BME280;51710;38.732;-121.358;2023-04-10T05:26:58;101427.72;;;16.54;58.89
64967;BME280;51710;38.732;-121.358;2023-04-10T05:29:25;101425.50;;;16.57;59.16
64967;BME280;51710;38.732;-121.358;2023-04-10T05:31:51;101428.31;;;16.64;59.66
64967;BME280;51710;38.732;-121.358;2023-04-10T05:34:17;101429.97;;;16.65;59.03
64967;BME280;51710;38.732;-121.358;2023-04-10T05:36:44;101428.31;;;16.64;58.82
64967;BME280;51710;38.732;-121.358;2023-04-10T05:39:10;101427.84;;;16.60;59.30
64967;BME280;51710;38.732;-121.358;2023-04-10T05:41:36;101427.72;;;16.54;59.89
64967;BME280;51710;38.732;-121.358;2023-04-10T05:44:02;101420.69;;;16.45;60.27
64967;BME280;51710;38.732;-121.358;2023-04-10T05:46:29;101421.56;;;16.37;60.41
64967;BME280;51710;38.732;-121.358;2023-04-10T05:48:55;101423.13;;;16.32;60.43
64967;BME280;51710;38.732;-121.358;2023-04-10T05:51:21;101425.47;;;16.27;60.78
64967;BME280;51710;38.732;-121.358;2023-04-10T05:53:47;101424.88;;;16.17;60.97
64967;BME280;51710;38.732;-121.358;2023-04-10T05:56:14;101415.72;;;16.03;61.29
64967;BME280;51710;38.732;-121.358;2023-04-10T05:58:40;101421.97;;;15.96;61.45
64967;BME280;51710;38.732;-121.358;2023-04-10T06:01:06;101423.47;;;15.90;61.71
64967;BME280;51710;38.732;-121.358;2023-04-10T06:03:32;101417.81;;;15.85;61.65
64967;BME280;51710;38.732;-121.358;2023-04-10T06:05:59;101414.63;;;15.82;61.84
64967;BME280;51710;38.732;-121.358;2023-04-10T06:08:27;101410.47;;;15.79;62.31
64967;BME280;51710;38.732;-121.358;2023-04-10T06:10:53;101410.97;;;15.74;62.33
64967;BME280;51710;38.732;-121.358;2023-04-10T06:13:20;101408.63;;;15.71;63.09
64967;BME280;51710;38.732;-121.358;2023-04-10T06:15:46;101401.28;;;15.65;63.22
64967;BME280;51710;38.732;-121.358;2023-04-10T06:18:12;101406.00;;;15.63;63.37
64967;BME280;51710;38.732;-121.358;2023-04-10T06:20:39;101392.72;;;15.62;63.38
64967;BME280;51710;38.732;-121.358;2023-04-10T06:23:05;101401.28;;;15.57;63.69
64967;BME280;51710;38.732;-121.358;2023-04-10T06:25:31;101407.69;;;15.48;64.06
64967;BME280;51710;38.732;-121.358;2023-04-10T06:27:58;101414.75;;;15.41;64.46
64967;BME280;51710;38.732;-121.358;2023-04-10T06:30:24;101409.69;;;15.38;64.25
64967;BME280;51710;38.732;-121.358;2023-04-10T06:32:50;101412.75;;;15.35;64.78
64967;BME280;51710;38.732;-121.358;2023-04-10T06:35:17;101408.72;;;15.31;64.60
64967;BME280;51710;38.732;-121.358;2023-04-10T06:37:43;101409.72;;;15.30;64.72
64967;BME280;51710;38.732;-121.358;2023-04-10T06:40:12;101405.72;;;15.26;65.00
64967;BME280;51710;38.732;-121.358;2023-04-10T06:42:38;101404.38;;;15.22;64.71
64967;BME280;51710;38.732;-121.358;2023-04-10T06:45:06;101402.03;;;15.19;65.07
64967;BME280;51710;38.732;-121.358;2023-04-10T06:47:33;101402.03;;;15.19;65.05
64967;BME280;51710;38.732;-121.358;2023-04-10T06:49:59;101408.75;;;15.23;65.00
64967;BME280;51710;38.732;-121.358;2023-04-10T06:52:25;101405.53;;;15.28;64.74
64967;BME280;51710;38.732;-121.358;2023-04-10T06:54:52;101409.38;;;15.33;64.54
64967;BME280;51710;38.732;-121.358;2023-04-10T06:57:18;101420.78;;;15.35;64.26
64967;BME280;51710;38.732;-121.358;2023-04-10T06:59:44;101413.59;;;15.36;64.33
64967;BME280;51710;38.732;-121.358;2023-04-10T07:02:10;101419.09;;;15.34;64.59
64967;BME280;51710;38.732;-121.358;2023-04-10T07:04:37;101421.78;;;15.34;64.14
64967;BME280;51710;38.732;-121.358;2023-04-10T07:07:03;101421.78;;;15.34;64.26
64967;BME280;51710;38.732;-121.358;2023-04-10T07:09:34;101418.09;;;15.35;64.25
64967;BME280;51710;38.732;-121.358;2023-04-10T07:12:00;101419.75;;;15.36;64.26
64967;BME280;51710;38.732;-121.358;2023-04-10T07:14:27;101421.28;;;15.39;64.12
64967;BME280;51710;38.732;-121.358;2023-04-10T07:16:53;101423.66;;;15.42;64.43
64967;BME280;51710;38.732;-121.358;2023-04-10T07:19:19;101422.44;;;15.36;64.67
64967;BME280;51710;38.732;-121.358;2023-04-10T07:21:46;101431.19;;;15.30;64.52
64967;BME280;51710;38.732;-121.358;2023-04-10T07:24:15;101423.66;;;15.26;64.66
64967;BME280;51710;38.732;-121.358;2023-04-10T07:26:43;101416.13;;;15.21;65.03
64967;BME280;51710;38.732;-121.358;2023-04-10T07:29:10;101419.47;;;15.07;65.58
64967;BME280;51710;38.732;-121.358;2023-04-10T07:31:37;101415.97;;;14.91;65.97
64967;BME280;51710;38.732;-121.358;2023-04-10T07:34:03;101404.75;;;14.79;66.36
64967;BME280;51710;38.732;-121.358;2023-04-10T07:36:29;101409.44;;;14.77;65.92
64967;BME280;51710;38.732;-121.358;2023-04-10T07:38:56;101407.94;;;14.83;65.23
64967;BME280;51710;38.732;-121.358;2023-04-10T07:41:22;101406.75;;;14.93;64.67
64967;BME280;51710;38.732;-121.358;2023-04-10T07:43:49;101413.44;;;15.05;63.94
64967;BME280;51710;38.732;-121.358;2023-04-10T07:46:16;101404.38;;;15.14;63.46
64967;BME280;51710;38.732;-121.358;2023-04-10T07:48:42;101408.75;;;15.23;63.25
64967;BME280;51710;38.732;-121.358;2023-04-10T07:51:09;101404.38;;;15.30;62.90
64967;BME280;51710;38.732;-121.358;2023-04-10T07:53:36;101406.53;;;15.35;62.24
64967;BME280;51710;38.732;-121.358;2023-04-10T07:56:02;101401.50;;;15.40;62.04
64967;BME280;51710;38.732;-121.358;2023-04-10T07:58:29;101401.34;;;15.41;61.81
64967;BME280;51710;38.732;-121.358;2023-04-10T08:00:56;101401.19;;;15.43;61.84
64967;BME280;51710;38.732;-121.358;2023-04-10T08:03:23;101408.03;;;15.45;61.28
64967;BME280;51710;38.732;-121.358;2023-04-10T08:05:49;101407.03;;;15.46;61.53
64967;BME280;51710;38.732;-121.358;2023-04-10T08:08:16;101402.31;;;15.48;61.61
64967;BME280;51710;38.732;-121.358;2023-04-10T08:10:42;101400.31;;;15.50;61.15
64967;BME280;51710;38.732;-121.358;2023-04-10T08:13:08;101396.94;;;15.48;61.31
64967;BME280;51710;38.732;-121.358;2023-04-10T08:15:35;101393.59;;;15.46;61.03
64967;BME280;51710;38.732;-121.358;2023-04-10T08:18:01;101388.09;;;15.40;61.27
64967;BME280;51710;38.732;-121.358;2023-04-10T08:20:27;101400.00;;;15.37;61.16
64967;BME280;51710;38.732;-121.358;2023-04-10T08:22:53;101398.47;;;15.35;61.00
64967;BME280;51710;38.732;-121.358;2023-04-10T08:25:20;101389.56;;;15.34;60.68
64967;BME280;51710;38.732;-121.358;2023-04-10T08:27:46;101398.28;;;15.36;60.67
64967;BME280;51710;38.732;-121.358;2023-04-10T08:30:12;101391.28;;;15.35;60.52
64967;BME280;51710;38.732;-121.358;2023-04-10T08:32:38;101393.94;;;15.35;60.35
64967;BME280;51710;38.732;-121.358;2023-04-10T08:35:05;101397.63;;;15.34;60.55
64967;BME280;51710;38.732;-121.358;2023-04-10T08:37:31;101397.63;;;15.34;60.22
64967;BME280;51710;38.732;-121.358;2023-04-10T08:39:58;101402.34;;;15.32;60.17
64967;BME280;51710;38.732;-121.358;2023-04-10T08:42:24;101393.63;;;15.30;60.30
64967;BME280;51710;38.732;-121.358;2023-04-10T08:44:51;101389.25;;;15.29;60.46
64967;BME280;51710;38.732;-121.358;2023-04-10T08:47:20;101387.59;;;15.28;60.64
64967;BME280;51710;38.732;-121.358;2023-04-10T08:49:57;101386.91;;;15.26;60.44
64967;BME280;51710;38.732;-121.358;2023-04-10T08:52:29;101385.25;;;15.25;60.19
64967;BME280;51710;38.732;-121.358;2023-04-10T08:54:59;101387.28;;;15.23;60.25
64967;BME280;51710;38.732;-121.358;2023-04-10T08:57:27;101388.09;;;15.24;60.66
64967;BME280;51710;38.732;-121.358;2023-04-10T08:59:54;101386.59;;;15.21;60.68
64967;BME280;51710;38.732;-121.358;2023-04-10T09:02:21;101385.59;;;15.22;60.43
64967;BME280;51710;38.732;-121.358;2023-04-10T09:04:50;101385.94;;;15.19;60.38
64967;BME280;51710;38.732;-121.358;2023-04-10T09:07:17;101382.56;;;15.17;60.40
64967;BME280;51710;38.732;-121.358;2023-04-10T09:09:43;101374.69;;;15.16;60.63
64967;BME280;51710;38.732;-121.358;2023-04-10T09:12:11;101378.53;;;15.13;60.86
64967;BME280;51710;38.732;-121.358;2023-04-10T09:14:40;101374.56;;;15.09;60.78
64967;BME280;51710;38.732;-121.358;2023-04-10T09:17:16;101370.53;;;15.05;61.20
64967;BME280;51710;38.732;-121.358;2023-04-10T09:19:45;101373.56;;;15.02;61.16
64967;BME280;51710;38.732;-121.358;2023-04-10T09:22:12;101372.22;;;14.98;61.30
64967;BME280;51710;38.732;-121.358;2023-04-10T09:24:41;101373.22;;;14.97;61.17
64967;BME280;51710;38.732;-121.358;2023-04-10T09:27:08;101369.69;;;14.97;60.99
64967;BME280;51710;38.732;-121.358;2023-04-10T09:29:43;101372.38;;;14.97;61.32
64967;BME280;51710;38.732;-121.358;2023-04-10T09:32:11;101363.50;;;14.96;61.29
64967;BME280;51710;38.732;-121.358;2023-04-10T09:34:54;101360.13;;;14.94;61.07
64967;BME280;51710;38.732;-121.358;2023-04-10T09:37:21;101365.50;;;14.94;61.02
64967;BME280;51710;38.732;-121.358;2023-04-10T09:39:56;101352.25;;;14.93;61.21
64967;BME280;51710;38.732;-121.358;2023-04-10T09:42:32;101358.47;;;14.93;61.08
64967;BME280;51710;38.732;-121.358;2023-04-10T09:45:00;101351.44;;;14.92;61.18
64967;BME280;51710;38.732;-121.358;2023-04-10T09:47:26;101353.47;;;14.90;61.28
64967;BME280;51710;38.732;-121.358;2023-04-10T09:49:54;101355.47;;;14.88;61.47
64967;BME280;51710;38.732;-121.358;2023-04-10T09:52:34;101345.09;;;14.85;61.14
64967;BME280;51710;38.732;-121.358;2023-04-10T09:55:05;101343.41;;;14.84;61.19
64967;BME280;51710;38.732;-121.358;2023-04-10T09:57:34;101348.75;;;14.84;61.22
64967;BME280;51710;38.732;-121.358;2023-04-10T10:00:04;101339.06;;;14.83;61.53
64967;BME280;51710;38.732;-121.358;2023-04-10T10:02:36;101340.03;;;14.82;61.55
64967;BME280;51710;38.732;-121.358;2023-04-10T10:05:06;101337.34;;;14.82;61.24
64967;BME280;51710;38.732;-121.358;2023-04-10T10:07:33;101343.75;;;14.81;61.29
64967;BME280;51710;38.732;-121.358;2023-04-10T10:10:01;101333.00;;;14.81;61.26
64967;BME280;51710;38.732;-121.358;2023-04-10T10:17:49;101327.66;;;14.81;61.65
64967;BME280;51710;38.732;-121.358;2023-04-10T10:20:19;101327.16;;;14.78;61.72
64967;BME280;51710;38.732;-121.358;2023-04-10T10:22:48;101317.94;;;14.72;61.86
64967;BME280;51710;38.732;-121.358;2023-04-10T10:25:15;101319.13;;;14.70;61.92
64967;BME280;51710;38.732;-121.358;2023-04-10T10:27:45;101312.44;;;14.65;62.01
64967;BME280;51710;38.732;-121.358;2023-04-10T10:30:16;101314.59;;;14.62;62.06
64967;BME280;51710;38.732;-121.358;2023-04-10T10:32:44;101310.41;;;14.59;62.38
64967;BME280;51710;38.732;-121.358;2023-04-10T10:35:12;101307.22;;;14.56;62.24
64967;BME280;51710;38.732;-121.358;2023-04-10T10:37:39;101307.56;;;14.53;62.31
64967;BME280;51710;38.732;-121.358;2023-04-10T10:40:19;101306.72;;;14.52;62.44
64967;BME280;51710;38.732;-121.358;2023-04-10T10:48:20;101300.72;;;14.50;62.59
64967;BME280;51710;38.732;-121.358;2023-04-10T10:50:57;101296.34;;;14.49;62.45
64967;BME280;51710;38.732;-121.358;2023-04-10T10:53:43;101297.19;;;14.50;62.78
64967;BME280;51710;38.732;-121.358;2023-04-10T10:58:49;101295.50;;;14.49;62.56
64967;BME280;51710;38.732;-121.358;2023-04-10T11:01:17;101293.50;;;14.43;62.71
64967;BME280;51710;38.732;-121.358;2023-04-10T11:03:45;101284.81;;;14.33;62.82
64967;BME280;51710;38.732;-121.358;2023-04-10T11:06:14;101283.63;;;14.27;63.20
64967;BME280;51710;38.732;-121.358;2023-04-10T11:08:46;101277.22;;;14.20;63.23
64967;BME280;51710;38.732;-121.358;2023-04-10T11:11:19;101277.03;;;14.06;63.78
64967;BME280;51710;38.732;-121.358;2023-04-10T11:19:05;101264.66;;;13.89;64.38
64967;BME280;51710;38.732;-121.358;2023-04-10T11:21:33;101267.16;;;13.90;64.29
64967;BME280;51710;38.732;-121.358;2023-04-10T11:24:01;101260.94;;;13.90;64.44
64967;BME280;51710;38.732;-121.358;2023-04-10T11:34:20;101256.78;;;13.87;64.81
64967;BME280;51710;38.732;-121.358;2023-04-10T11:36:47;101259.28;;;13.89;64.57
64967;BME280;51710;38.732;-121.358;2023-04-10T11:39:16;101259.78;;;13.92;64.66
64967;BME280;51710;38.732;-121.358;2023-04-10T11:41:45;101254.09;;;13.95;64.39
64967;BME280;51710;38.732;-121.358;2023-04-10T11:44:33;101258.59;;;13.95;64.75
64967;BME280;51710;38.732;-121.358;2023-04-10T11:47:05;101256.28;;;14.00;64.58
64967;BME280;51710;38.732;-121.358;2023-04-10T11:49:33;101268.34;;;14.04;64.45
64967;BME280;51710;38.732;-121.358;2023-04-10T11:51:59;101255.78;;;14.04;64.67
64967;BME280;51710;38.732;-121.358;2023-04-10T11:54:27;101267.50;;;14.03;64.77
64967;BME280;51710;38.732;-121.358;2023-04-10T11:59:26;101261.31;;;14.03;64.85
64967;BME280;51710;38.732;-121.358;2023-04-10T12:02:01;101258.81;;;14.01;64.89
64967;BME280;51710;38.732;-121.358;2023-04-10T12:04:27;101257.97;;;14.01;65.01
64967;BME280;51710;38.732;-121.358;2023-04-10T12:06:56;101256.28;;;14.00;65.14
64967;BME280;51710;38.732;-121.358;2023-04-10T12:09:22;101251.09;;;13.98;64.95
64967;BME280;51710;38.732;-121.358;2023-04-10T12:12:03;101258.31;;;13.98;64.98
64967;BME280;51710;38.732;-121.358;2023-04-10T12:14:32;101254.28;;;13.94;65.07
64967;BME280;51710;38.732;-121.358;2023-04-10T12:17:01;101247.22;;;13.85;65.36
64967;BME280;51710;38.732;-121.358;2023-04-10T12:19:28;101248.88;;;13.70;65.86
64967;BME280;51710;38.732;-121.358;2023-04-10T12:21:55;101257.88;;;13.52;66.22
64967;BME280;51710;38.732;-121.358;2023-04-10T12:24:41;101252.13;;;13.39;66.98
64967;BME280;51710;38.732;-121.358;2023-04-10T12:29:41;101251.03;;;13.16;67.84
64967;BME280;51710;38.732;-121.358;2023-04-10T12:32:08;101245.31;;;13.03;68.11
64967;BME280;51710;38.732;-121.358;2023-04-10T12:34:38;101245.25;;;12.95;68.64
64967;BME280;51710;38.732;-121.358;2023-04-10T12:37:05;101253.06;;;12.89;69.23
64967;BME280;51710;38.732;-121.358;2023-04-10T12:39:31;101248.88;;;12.86;68.79
64967;BME280;51710;38.732;-121.358;2023-04-10T12:42:14;101252.16;;;12.80;69.31
64967;BME280;51710;38.732;-121.358;2023-04-10T12:44:55;101245.78;;;12.73;69.35
64967;BME280;51710;38.732;-121.358;2023-04-10T12:47:25;101249.41;;;12.64;69.52
64967;BME280;51710;38.732;-121.358;2023-04-10T12:52:31;101252.44;;;12.43;70.49
64967;BME280;51710;38.732;-121.358;2023-04-10T12:55:11;101261.25;;;12.36;71.32
64967;BME280;51710;38.732;-121.358;2023-04-10T12:57:39;101251.69;;;12.33;71.12
64967;BME280;51710;38.732;-121.358;2023-04-10T13:00:07;101263.53;;;12.31;71.54
64967;BME280;51710;38.732;-121.358;2023-04-10T13:02:38;101263.84;;;12.28;71.37
64967;BME280;51710;38.732;-121.358;2023-04-10T13:05:05;101262.19;;;12.27;71.45
64967;BME280;51710;38.732;-121.358;2023-04-10T13:07:31;101260.78;;;12.23;71.70
64967;BME280;51710;38.732;-121.358;2023-04-10T13:09:58;101264.38;;;12.14;71.71
64967;BME280;51710;38.732;-121.358;2023-04-10T13:12:25;101262.72;;;12.13;72.27